Time;durP1;ratioP1;P1;durP2;ratioP2;P2;SDS_P1;SDS_P2;PMS_P1;PMS_P2;Temp;Humidity;BMP_temperature;BMP_pressure;BME280_temperature;BME280_humidity;BME280_pressure;Samples;Min_cycle;Max_cycle;Signal;HPM_P1;HPM_P2
2021/01/14 00:00:36;;;;;;;1.35;1.27;;;1.20;99.90;;;;;;5082116;28;20102;-76
2021/01/14 00:03:11;;;;;;;1.80;1.70;;;1.10;99.90;;;;;;5088042;28;20052;-75
2021/01/14 00:05:41;;;;;;;1.70;1.60;;;1.10;99.90;;;;;;5068256;28;20048;-78
2021/01/14 00:08:12;;;;;;;1.60;1.50;;;1.10;99.90;;;;;;5088593;28;20106;-78
2021/01/14 00:10:40;;;;;;;2.58;1.52;;;1.00;99.90;;;;;;5087369;28;20079;-77
2021/01/14 00:13:12;;;;;;;1.80;1.70;;;1.00;99.90;;;;;;5087081;28;20214;-76
2021/01/14 00:15:42;;;;;;;1.60;1.50;;;0.90;99.90;;;;;;5058318;28;20157;-77
2021/01/14 00:18:08;;;;;;;2.17;1.20;;;0.90;99.90;;;;;;5086437;28;20040;-78
2021/01/14 00:20:34;;;;;;;2.50;1.30;;;0.80;99.90;;;;;;5088742;28;20044;-76
2021/01/14 00:23:01;;;;;;;1.30;1.20;;;0.80;99.90;;;;;;5088077;28;20126;-76
2021/01/14 00:25:27;;;;;;;1.20;1.20;;;0.80;99.90;;;;;;5067984;28;20559;-78
2021/01/14 00:27:56;;;;;;;1.65;1.55;;;0.80;99.90;;;;;;5065832;28;20079;-77
2021/01/14 00:30:30;;;;;;;1.90;1.40;;;0.80;99.90;;;;;;5052504;28;20119;-78
2021/01/14 00:32:58;;;;;;;1.40;1.30;;;0.80;99.90;;;;;;5062634;28;20047;-77
2021/01/14 00:35:29;;;;;;;1.40;1.30;;;0.80;99.90;;;;;;5054482;28;20605;-78
2021/01/14 00:37:56;;;;;;;1.40;1.30;;;0.80;99.90;;;;;;5088312;28;20052;-77
2021/01/14 00:40:30;;;;;;;3.50;1.50;;;0.80;99.90;;;;;;5086024;28;20127;-78
2021/01/14 00:42:57;;;;;;;2.95;1.60;;;0.80;99.90;;;;;;5071061;28;20181;-77
2021/01/14 00:45:26;;;;;;;1.40;1.30;;;0.70;99.90;;;;;;5087967;28;20051;-78
2021/01/14 00:47:53;;;;;;;1.83;1.73;;;0.80;99.90;;;;;;5079885;28;20060;-77
2021/01/14 00:50:19;;;;;;;3.90;1.60;;;0.70;99.90;;;;;;5087847;28;20668;-78
2021/01/14 00:52:48;;;;;;;2.08;1.88;;;0.70;99.90;;;;;;5087577;28;20055;-77
2021/01/14 00:55:16;;;;;;;2.33;2.13;;;0.70;99.90;;;;;;5083070;28;20119;-77
2021/01/14 00:57:45;;;;;;;3.15;2.10;;;0.70;99.90;;;;;;5082012;28;20115;-77
2021/01/14 01:00:17;;;;;;;2.40;2.20;;;0.60;99.90;;;;;;5087612;28;20556;-77
2021/01/14 01:02:46;;;;;;;4.25;2.20;;;0.60;99.90;;;;;;5068961;28;20483;-77
2021/01/14 01:05:16;;;;;;;2.38;2.17;;;0.60;99.90;;;;;;5087743;28;20131;-77
2021/01/14 01:07:57;;;;;;;2.78;2.20;;;0.70;99.90;;;;;;5085803;28;20083;-77
2021/01/14 01:10:25;;;;;;;4.07;2.50;;;0.60;99.90;;;;;;5079925;28;20071;-78
2021/01/14 01:12:53;;;;;;;3.47;2.40;;;0.60;99.90;;;;;;5064956;28;20037;-77
2021/01/14 01:15:20;;;;;;;5.07;2.40;;;0.60;99.90;;;;;;5079407;28;20048;-78
2021/01/14 01:17:49;;;;;;;2.67;2.40;;;0.60;99.90;;;;;;5065880;28;20055;-77
2021/01/14 01:20:16;;;;;;;2.42;2.22;;;0.60;99.90;;;;;;5087367;28;20040;-78
2021/01/14 01:22:42;;;;;;;2.80;2.53;;;0.60;99.90;;;;;;5087185;28;20044;-77
2021/01/14 01:25:09;;;;;;;3.88;2.40;;;0.60;99.90;;;;;;5082820;28;20127;-79
2021/01/14 01:27:37;;;;;;;3.97;2.90;;;0.60;99.90;;;;;;5060807;28;20132;-78
2021/01/14 01:30:06;;;;;;;2.65;2.30;;;0.60;99.90;;;;;;5079968;28;20091;-77
2021/01/14 01:32:32;;;;;;;2.58;2.25;;;0.60;99.90;;;;;;5079295;28;20055;-77
2021/01/14 01:34:59;;;;;;;3.25;2.22;;;0.60;99.90;;;;;;5077101;28;20043;-78
2021/01/14 01:37:25;;;;;;;3.33;2.25;;;0.60;99.90;;;;;;5087241;28;20119;-78
2021/01/14 01:39:52;;;;;;;2.78;2.30;;;0.60;99.90;;;;;;5054710;28;20114;-78
2021/01/14 01:42:20;;;;;;;4.57;2.10;;;0.60;99.90;;;;;;5075911;28;20126;-78
2021/01/14 01:44:51;;;;;;;2.22;2.03;;;0.60;99.90;;;;;;5065524;28;20041;-77
2021/01/14 01:47:18;;;;;;;3.45;2.63;;;0.70;99.90;;;;;;5066729;28;20098;-77
2021/01/14 01:49:45;;;;;;;4.00;2.50;;;0.60;99.90;;;;;;5069470;28;20044;-77
2021/01/14 01:52:11;;;;;;;4.72;2.55;;;0.60;99.90;;;;;;5083456;28;20639;-78
2021/01/14 01:54:40;;;;;;;3.92;2.53;;;0.60;99.90;;;;;;5068069;28;20070;-77
2021/01/14 01:57:08;;;;;;;3.13;2.65;;;0.60;99.90;;;;;;5058177;28;20466;-78
2021/01/14 01:59:34;;;;;;;5.97;2.20;;;0.60;99.90;;;;;;5074377;28;20428;-78
2021/01/14 02:02:22;;;;;;;2.90;2.00;;;0.60;99.90;;;;;;5060490;28;20384;-78
2021/01/14 02:04:51;;;;;;;5.72;2.40;;;0.60;99.90;;;;;;5083733;28;20040;-77
2021/01/14 02:07:56;;;;;;;3.78;2.33;;;0.60;99.90;;;;;;5087232;28;20047;-78
2021/01/14 02:10:42;;;;;;;2.47;2.25;;;0.60;99.90;;;;;;5075531;28;20518;-78
2021/01/14 02:13:35;;;;;;;4.68;2.50;;;0.60;99.90;;;;;;5081786;28;20477;-78
2021/01/14 02:16:04;;;;;;;2.83;2.33;;;0.60;99.90;;;;;;5086769;28;20052;-78
2021/01/14 02:18:31;;;;;;;6.95;2.50;;;0.60;99.90;;;;;;5067514;28;20852;-79
2021/01/14 02:21:04;;;;;;;2.30;2.10;;;0.60;99.90;;;;;;5064553;28;20139;-78
2021/01/14 02:24:15;;;;;;;4.63;2.00;;;0.60;99.90;;;;;;5086432;28;20097;-80
2021/01/14 02:26:48;;;;;;;4.00;1.90;;;0.60;99.90;;;;;;5069807;28;20459;-77
2021/01/14 02:29:16;;;;;;;3.08;1.88;;;0.70;99.90;;;;;;5086817;28;20645;-78
2021/01/14 02:31:42;;;;;;;3.33;2.10;;;0.70;99.90;;;;;;5072557;28;20131;-78
2021/01/14 02:34:11;;;;;;;4.18;2.20;;;0.60;99.90;;;;;;5085771;28;20563;-79
2021/01/14 02:36:37;;;;;;;6.50;2.25;;;0.60;99.90;;;;;;5086887;28;20123;-77
2021/01/14 02:39:04;;;;;;;4.38;2.35;;;0.70;99.90;;;;;;5045761;28;20072;-77
2021/01/14 02:41:30;;;;;;;4.65;2.35;;;0.60;99.90;;;;;;5079164;28;20937;-77
2021/01/14 02:44:01;;;;;;;3.35;2.28;;;0.60;99.90;;;;;;5059613;28;20090;-77
2021/01/14 02:46:28;;;;;;;5.93;2.40;;;0.60;99.90;;;;;;5075173;28;20071;-79
2021/01/14 02:49:10;;;;;;;4.20;2.30;;;0.60;99.90;;;;;;5086068;28;20052;-77
2021/01/14 02:51:52;;;;;;;3.55;2.30;;;0.70;99.90;;;;;;5086272;28;20097;-78
2021/01/14 02:54:21;;;;;;;3.10;2.25;;;0.70;99.90;;;;;;5073449;28;20075;-78
2021/01/14 02:56:50;;;;;;;7.32;2.28;;;0.70;99.90;;;;;;5059959;28;20506;-78
2021/01/14 02:59:19;;;;;;;11.65;2.40;;;0.70;99.90;;;;;;5053657;28;20076;-78
2021/01/14 03:01:45;;;;;;;8.63;2.90;;;0.70;99.90;;;;;;5063937;28;20126;-78
2021/01/14 03:04:14;;;;;;;10.68;3.05;;;0.70;99.90;;;;;;5049793;28;20155;-79
2021/01/14 03:06:43;;;;;;;7.18;3.38;;;0.70;99.90;;;;;;5077125;28;20044;-78
2021/01/14 03:09:10;;;;;;;4.50;2.67;;;0.70;99.90;;;;;;5089665;28;20048;-78
2021/01/14 03:11:39;;;;;;;3.63;2.55;;;0.70;99.90;;;;;;5060824;28;20664;-78
2021/01/14 03:14:05;;;;;;;6.28;2.67;;;0.70;99.90;;;;;;5084907;28;20072;-77
2021/01/14 03:16:39;;;;;;;4.13;2.50;;;0.70;99.90;;;;;;5070986;28;20044;-78
2021/01/14 03:19:08;;;;;;;9.70;2.60;;;0.60;99.90;;;;;;5079213;28;20097;-77
2021/01/14 03:21:34;;;;;;;4.80;2.33;;;0.70;99.90;;;;;;5087111;28;20350;-78
2021/01/14 03:24:01;;;;;;;8.30;2.75;;;0.70;99.90;;;;;;5087843;28;20131;-78
2021/01/14 03:26:32;;;;;;;6.60;2.40;;;0.70;99.90;;;;;;5085723;28;20127;-79
2021/01/14 03:28:58;;;;;;;6.63;2.90;;;0.70;99.90;;;;;;5043024;28;20136;-78
2021/01/14 03:31:24;;;;;;;5.30;3.20;;;0.70;99.90;;;;;;5070761;28;20094;-79
2021/01/14 03:33:51;;;;;;;5.03;3.25;;;0.70;99.90;;;;;;5057261;28;20055;-78
2021/01/14 03:36:19;;;;;;;9.15;3.83;;;0.70;99.90;;;;;;5077161;28;20132;-78
2021/01/14 03:38:46;;;;;;;7.78;3.70;;;0.70;99.90;;;;;;5089276;28;20429;-78
2021/01/14 03:41:20;;;;;;;8.05;3.97;;;0.70;99.90;;;;;;5074198;28;20049;-78
2021/01/14 03:43:46;;;;;;;7.97;3.58;;;0.70;99.90;;;;;;5069943;28;20051;-78
2021/01/14 03:46:16;;;;;;;10.50;4.07;;;0.60;99.90;;;;;;5074821;28;20071;-79
2021/01/14 03:48:46;;;;;;;7.28;3.78;;;0.60;99.90;;;;;;5060328;28;20143;-78
2021/01/14 03:51:20;;;;;;;6.18;4.53;;;0.60;99.90;;;;;;5086170;28;20131;-77
2021/01/14 03:53:47;;;;;;;8.30;4.00;;;0.60;99.90;;;;;;5087579;28;20052;-78
2021/01/14 03:56:14;;;;;;;10.55;4.50;;;0.60;99.90;;;;;;5065219;28;20040;-79
2021/01/14 03:58:44;;;;;;;9.55;4.65;;;0.60;99.90;;;;;;5078683;28;20055;-78
2021/01/14 04:01:10;;;;;;;8.25;4.53;;;0.60;99.90;;;;;;5086366;28;20040;-77
2021/01/14 04:03:43;;;;;;;10.57;5.88;;;0.60;99.90;;;;;;5088531;28;20483;-76
2021/01/14 04:06:10;;;;;;;8.30;4.90;;;0.60;99.90;;;;;;5084521;28;20044;-78
2021/01/14 04:08:40;;;;;;;17.33;5.72;;;0.60;99.90;;;;;;5076578;28;20129;-79
2021/01/14 04:11:09;;;;;;;7.28;5.45;;;0.60;99.90;;;;;;5043344;28;20389;-77
2021/01/14 04:13:36;;;;;;;20.83;6.25;;;0.60;99.90;;;;;;5064451;28;20123;-78
2021/01/14 04:16:05;;;;;;;9.98;5.90;;;0.60;99.90;;;;;;5087468;28;20533;-77
2021/01/14 04:18:36;;;;;;;13.77;7.30;;;0.60;99.90;;;;;;5073455;28;20463;-78
2021/01/14 04:21:02;;;;;;;14.23;6.85;;;0.50;99.90;;;;;;5088628;28;20131;-77
2021/01/14 04:23:28;;;;;;;11.63;7.40;;;0.60;99.90;;;;;;5064108;28;20151;-77
2021/01/14 04:25:57;;;;;;;16.35;7.93;;;0.50;99.90;;;;;;5070592;28;20448;-78
2021/01/14 04:28:24;;;;;;;16.40;7.43;;;0.50;99.90;;;;;;5087492;28;20127;-77
2021/01/14 04:30:53;;;;;;;24.95;8.15;;;0.50;99.90;;;;;;5070358;28;20105;-78
2021/01/14 04:33:21;;;;;;;11.50;7.38;;;0.50;99.90;;;;;;5069501;28;20158;-78
2021/01/14 04:35:53;;;;;;;16.50;7.75;;;0.50;99.90;;;;;;5065377;28;20040;-78
2021/01/14 04:38:21;;;;;;;16.13;8.32;;;0.50;99.90;;;;;;5085409;28;20468;-78
2021/01/14 04:40:54;;;;;;;19.95;7.80;;;0.60;99.90;;;;;;5069070;28;20089;-78
2021/01/14 04:43:23;;;;;;;16.08;8.27;;;0.50;99.90;;;;;;5073902;28;20044;-78
2021/01/14 04:45:54;;;;;;;16.55;7.78;;;0.50;99.90;;;;;;5088352;28;20075;-78
2021/01/14 04:48:22;;;;;;;18.95;8.13;;;0.50;99.90;;;;;;5083551;28;20071;-78
2021/01/14 04:50:50;;;;;;;18.55;9.32;;;0.50;99.90;;;;;;5076001;28;20040;-78
2021/01/14 04:53:21;;;;;;;22.25;10.52;;;0.50;99.90;;;;;;5088174;28;20044;-77
2021/01/14 04:55:48;;;;;;;24.45;11.93;;;0.50;99.90;;;;;;5074927;28;20076;-77
2021/01/14 04:58:17;;;;;;;24.23;11.73;;;0.50;99.90;;;;;;5087603;28;20462;-77
2021/01/14 05:00:51;;;;;;;23.08;11.80;;;0.50;99.90;;;;;;5086100;28;20123;-77
2021/01/14 05:03:28;;;;;;;24.17;11.90;;;0.50;99.90;;;;;;5066907;28;20132;-78
2021/01/14 05:05:56;;;;;;;26.83;11.77;;;0.50;99.90;;;;;;5082169;28;20589;-77
2021/01/14 05:08:29;;;;;;;28.60;12.52;;;0.50;99.90;;;;;;5087740;28;20050;-78
2021/01/14 05:10:56;;;;;;;25.55;12.98;;;0.50;99.90;;;;;;5085776;28;20087;-80
2021/01/14 05:13:28;;;;;;;32.25;14.65;;;0.50;99.90;;;;;;5072957;28;20071;-82
2021/01/14 05:15:57;;;;;;;32.35;14.18;;;0.50;99.90;;;;;;5088344;28;20113;-81
2021/01/14 05:18:26;;;;;;;24.45;14.23;;;0.50;99.90;;;;;;5086491;28;20136;-82
2021/01/14 05:20:57;;;;;;;32.30;14.57;;;0.50;99.90;;;;;;5061796;28;20075;-81
2021/01/14 05:23:25;;;;;;;28.00;13.98;;;0.50;99.90;;;;;;5085797;28;20075;-82
2021/01/14 05:25:54;;;;;;;29.80;13.63;;;0.50;99.90;;;;;;5058933;28;20053;-82
2021/01/14 05:28:24;;;;;;;25.83;13.25;;;0.50;99.90;;;;;;5083998;28;20055;-81
2021/01/14 05:30:52;;;;;;;23.45;13.52;;;0.50;99.90;;;;;;5049573;28;20455;-82
2021/01/14 05:33:23;;;;;;;24.50;12.73;;;0.60;99.90;;;;;;5074715;28;20095;-81
2021/01/14 05:35:51;;;;;;;23.48;13.25;;;0.60;99.90;;;;;;5062173;28;20102;-84
2021/01/14 05:38:32;;;;;;;26.10;13.98;;;0.60;99.90;;;;;;5080717;28;20515;-81
2021/01/14 05:41:21;;;;;;;26.77;14.00;;;0.60;99.90;;;;;;5086803;28;20048;-85
2021/01/14 05:43:59;;;;;;;29.48;13.05;;;0.60;99.90;;;;;;5067779;28;20147;-81
2021/01/14 05:46:30;;;;;;;25.20;13.60;;;0.60;99.90;;;;;;5084768;28;20123;-82
2021/01/14 05:49:01;;;;;;;29.67;13.75;;;0.60;99.90;;;;;;5086693;28;20123;-77
2021/01/14 05:51:29;;;;;;;33.75;14.02;;;0.50;99.90;;;;;;5087156;28;20123;-78
2021/01/14 05:54:02;;;;;;;34.75;14.80;;;0.50;99.90;;;;;;5064134;28;20506;-78
2021/01/14 05:56:33;;;;;;;29.70;15.52;;;0.50;99.90;;;;;;5072454;28;20040;-78
2021/01/14 05:59:07;;;;;;;36.33;15.07;;;0.50;99.90;;;;;;5076512;28;20040;-77
2021/01/14 06:01:36;;;;;;;32.92;15.27;;;0.50;99.90;;;;;;5055853;28;20843;-78
2021/01/14 06:04:19;;;;;;;36.50;15.98;;;0.50;99.90;;;;;;5067951;28;20126;-78
2021/01/14 06:06:51;;;;;;;34.03;16.45;;;0.50;99.90;;;;;;5080373;28;20040;-77
2021/01/14 06:09:20;;;;;;;30.33;15.75;;;0.50;99.90;;;;;;5060913;28;20131;-76
2021/01/14 06:11:49;;;;;;;37.03;17.05;;;0.50;99.90;;;;;;5067434;28;20132;-77
2021/01/14 06:14:29;;;;;;;37.28;16.50;;;0.50;99.90;;;;;;5080113;28;20135;-77
2021/01/14 06:16:58;;;;;;;34.72;16.35;;;0.50;99.90;;;;;;5084779;28;20050;-77
2021/01/14 06:19:26;;;;;;;34.47;16.45;;;0.50;99.90;;;;;;5059373;28;20173;-78
2021/01/14 06:21:56;;;;;;;27.33;14.93;;;0.50;99.90;;;;;;5077847;28;20107;-78
2021/01/14 06:24:36;;;;;;;34.28;16.20;;;0.50;99.90;;;;;;5072362;28;20505;-78
2021/01/14 06:27:05;;;;;;;24.80;14.10;;;0.50;99.90;;;;;;5065521;28;20143;-77
2021/01/14 06:29:42;;;;;;;29.02;13.27;;;0.50;99.90;;;;;;5064854;28;20040;-78
2021/01/14 06:32:16;;;;;;;20.27;10.73;;;0.50;99.90;;;;;;5065770;28;20438;-77
2021/01/14 06:34:48;;;;;;;20.48;10.73;;;0.40;99.90;;;;;;5063233;28;20094;-77
2021/01/14 06:37:19;;;;;;;23.85;13.05;;;0.40;99.90;;;;;;5085199;28;20052;-77
2021/01/14 06:40:01;;;;;;;21.90;14.10;;;0.40;99.90;;;;;;5056187;28;20068;-77
2021/01/14 06:42:32;;;;;;;25.23;13.70;;;0.40;99.90;;;;;;5072076;28;20044;-78
2021/01/14 06:45:01;;;;;;;24.58;13.88;;;0.40;99.90;;;;;;5072624;28;20110;-77
2021/01/14 06:47:45;;;;;;;21.83;13.43;;;0.40;99.90;;;;;;5084553;28;20047;-78
2021/01/14 06:50:14;;;;;;;18.38;11.00;;;0.40;99.90;;;;;;5086468;28;20052;-77
2021/01/14 06:52:51;;;;;;;19.52;11.68;;;0.40;99.90;;;;;;5068259;28;20040;-78
2021/01/14 06:55:19;;;;;;;14.45;10.38;;;0.40;99.90;;;;;;5052831;28;20068;-78
2021/01/14 06:58:04;;;;;;;13.60;8.45;;;0.30;99.90;;;;;;5083168;28;20137;-77
2021/01/14 07:00:31;;;;;;;17.00;10.27;;;0.30;99.90;;;;;;5086213;28;20108;-78
2021/01/14 07:03:22;;;;;;;12.70;8.90;;;0.30;99.90;;;;;;5050683;28;20041;-78
2021/01/14 07:05:54;;;;;;;12.70;8.50;;;0.30;99.90;;;;;;5073029;28;20075;-77
2021/01/14 07:08:43;;;;;;;9.20;7.55;;;0.30;99.90;;;;;;5065844;28;20071;-78
2021/01/14 07:11:27;;;;;;;11.77;7.07;;;0.20;99.90;;;;;;5079241;28;20060;-78
2021/01/14 07:13:59;;;;;;;11.85;7.60;;;0.20;99.90;;;;;;5061445;28;20044;-77
2021/01/14 07:16:29;;;;;;;16.40;8.70;;;0.20;99.90;;;;;;5082452;28;20047;-79
2021/01/14 07:18:56;;;;;;;13.23;7.70;;;0.30;99.90;;;;;;5075181;28;20052;-78
2021/01/14 07:21:29;;;;;;;13.07;7.45;;;0.30;99.90;;;;;;5081282;28;20480;-79
2021/01/14 07:24:18;;;;;;;11.48;7.28;;;0.30;99.90;;;;;;5078052;28;20048;-77
2021/01/14 07:26:52;;;;;;;13.15;7.50;;;0.30;99.90;;;;;;5079906;28;20055;-78
2021/01/14 07:29:19;;;;;;;11.40;6.72;;;0.30;99.90;;;;;;5069570;28;20045;-78
2021/01/14 07:31:46;;;;;;;12.98;7.55;;;0.30;99.90;;;;;;5077553;28;20132;-77
2021/01/14 07:34:34;;;;;;;12.20;7.18;;;0.30;99.90;;;;;;5054474;28;20056;-78
2021/01/14 07:37:15;;;;;;;12.02;6.25;;;0.20;99.90;;;;;;5066970;28;20054;-78
2021/01/14 07:39:54;;;;;;;11.77;5.53;;;0.20;99.90;;;;;;5072155;28;20096;-78
2021/01/14 07:42:36;;;;;;;12.70;6.20;;;0.20;99.90;;;;;;5070783;28;20598;-79
2021/01/14 07:45:04;;;;;;;7.78;5.50;;;0.20;99.90;;;;;;5054944;28;20048;-78
2021/01/14 07:47:46;;;;;;;9.77;5.95;;;0.20;99.90;;;;;;5066929;28;20384;-79
2021/01/14 07:50:29;;;;;;;5.47;4.10;;;0.20;99.90;;;;;;5082059;28;20358;-77
2021/01/14 07:53:14;;;;;;;7.97;3.45;;;0.10;99.90;;;;;;5087665;28;20059;-78
2021/01/14 07:55:44;;;;;;;2.92;2.65;;;0.10;99.90;;;;;;5062912;28;20043;-78
2021/01/14 07:58:23;;;;;;;6.63;3.80;;;0.10;99.90;;;;;;5068401;28;20148;-78
2021/01/14 08:01:13;;;;;;;6.93;3.60;;;0.00;99.90;;;;;;5081194;28;20044;-78
2021/01/14 08:03:40;;;;;;;6.38;3.50;;;0.00;99.90;;;;;;5076644;28;20045;-78
2021/01/14 08:06:34;;;;;;;5.32;3.47;;;0.00;99.90;;;;;;5067207;28;20092;-77
2021/01/14 08:09:13;;;;;;;8.02;3.55;;;0.00;99.90;;;;;;5079726;28;20058;-78
2021/01/14 08:11:51;;;;;;;9.15;3.58;;;-0.10;99.90;;;;;;5056582;28;20638;-79
2021/01/14 08:14:35;;;;;;;12.05;4.35;;;-0.10;99.90;;;;;;5059943;28;20474;-79
2021/01/14 08:17:27;;;;;;;9.20;4.47;;;-0.10;99.90;;;;;;5055171;28;20096;-79
2021/01/14 08:19:59;;;;;;;10.88;3.67;;;-0.20;99.90;;;;;;5067611;28;20972;-78
2021/01/14 08:22:44;;;;;;;6.68;3.45;;;-0.20;99.90;;;;;;5067108;28;20063;-78
2021/01/14 08:25:23;;;;;;;6.75;3.83;;;-0.20;99.90;;;;;;5048482;28;20041;-77
2021/01/14 08:28:03;;;;;;;12.02;4.45;;;-0.20;99.90;;;;;;5061705;28;20051;-77
2021/01/14 08:30:42;;;;;;;9.80;4.65;;;-0.20;99.90;;;;;;5053234;28;20072;-78
2021/01/14 08:33:25;;;;;;;7.72;4.20;;;-0.20;99.90;;;;;;5062322;28;20067;-77
2021/01/14 08:36:14;;;;;;;9.23;4.90;;;-0.30;99.90;;;;;;5057688;28;20404;-78
2021/01/14 08:38:58;;;;;;;14.27;5.72;;;-0.30;99.90;;;;;;5052381;28;20048;-77
2021/01/14 08:44:23;;;;;;;13.63;6.57;;;-0.20;99.90;;;;;;5045630;28;20052;-76
2021/01/14 08:47:06;;;;;;;11.15;6.28;;;-0.30;99.90;;;;;;5046216;28;20144;-76
2021/01/14 08:49:45;;;;;;;12.63;7.50;;;-0.20;99.90;;;;;;5061148;28;20586;-76
2021/01/14 08:52:28;;;;;;;13.10;7.47;;;-0.20;99.90;;;;;;5063353;28;20306;-77
2021/01/14 08:55:22;;;;;;;20.48;9.10;;;-0.10;99.90;;;;;;5056789;28;20048;-78
2021/01/14 08:58:14;;;;;;;8.88;5.50;;;-0.10;99.90;;;;;;5037059;28;20660;-77
2021/01/14 09:00:48;;;;;;;10.20;5.38;;;-0.10;99.90;;;;;;5044958;28;20128;-76
2021/01/14 09:08:09;;;;;;;10.25;5.72;;;0.00;99.90;;;;;;4982233;28;20207;-77
2021/01/14 09:14:43;;;;;;;8.73;5.68;;;0.00;99.90;;;;;;4869340;29;20057;-78
2021/01/14 09:17:26;;;;;;;10.20;5.22;;;0.00;99.90;;;;;;4877659;29;20052;-76
2021/01/14 09:20:37;;;;;;;7.60;5.13;;;0.00;99.90;;;;;;4862861;29;20048;-78
2021/01/14 09:23:41;;;;;;;8.27;5.70;;;0.00;99.90;;;;;;4867984;29;20160;-77
2021/01/14 09:26:41;;;;;;;13.57;5.45;;;0.10;99.90;;;;;;4896419;29;20048;-79
2021/01/14 09:29:47;;;;;;;12.55;5.72;;;0.20;99.90;;;;;;4906815;29;20056;-78
2021/01/14 09:36:12;;;;;;;15.93;7.22;;;0.30;99.90;;;;;;4906637;29;20100;-77
2021/01/14 09:39:31;;;;;;;9.95;5.63;;;0.30;99.90;;;;;;4876931;29;20671;-78
2021/01/14 09:43:04;;;;;;;12.82;6.28;;;0.30;99.90;;;;;;4913263;28;20051;-78
2021/01/14 09:53:29;;;;;;;10.85;7.55;;;0.20;99.90;;;;;;5026562;28;20072;-77
2021/01/14 09:56:07;;;;;;;11.02;6.20;;;0.30;99.90;;;;;;5029650;28;20069;-77
2021/01/14 09:58:54;;;;;;;14.07;5.63;;;0.40;99.90;;;;;;5040869;28;20045;-77
2021/01/14 10:02:10;;;;;;;14.27;5.82;;;0.50;99.90;;;;;;5018430;28;20559;-76
2021/01/14 10:04:45;;;;;;;10.57;5.95;;;0.60;99.90;;;;;;5040640;28;20041;-77
2021/01/14 10:11:25;;;;;;;9.82;5.95;;;0.60;99.90;;;;;;4942484;28;20235;-77
2021/01/14 10:14:32;;;;;;;9.63;5.50;;;0.70;99.90;;;;;;4964198;28;20178;-76
2021/01/14 10:17:20;;;;;;;9.60;5.78;;;0.60;99.90;;;;;;4890364;29;20909;-76
2021/01/14 10:27:22;;;;;;;18.20;6.30;;;0.60;99.90;;;;;;4771690;30;21571;-76
2021/01/14 10:34:10;;;;;;;12.30;5.80;;;0.60;99.90;;;;;;4810474;29;20084;-77
2021/01/14 10:37:05;;;;;;;9.63;5.68;;;0.40;99.90;;;;;;4807027;29;20061;-77
2021/01/14 10:39:58;;;;;;;12.13;5.72;;;0.40;99.90;;;;;;4791464;29;20554;-76
2021/01/14 10:42:47;;;;;;;12.30;6.60;;;0.40;99.90;;;;;;4844702;29;20136;-77
2021/01/14 10:45:36;;;;;;;15.50;6.55;;;0.30;99.90;;;;;;4848888;29;20223;-77
2021/01/14 10:48:27;;;;;;;12.23;5.90;;;0.40;99.90;;;;;;4834248;29;20080;-77
2021/01/14 10:51:13;;;;;;;17.40;8.35;;;0.50;99.90;;;;;;4849200;29;20061;-77
2021/01/14 10:53:56;;;;;;;12.13;6.65;;;0.40;99.90;;;;;;4844986;29;20691;-77
2021/01/14 10:56:33;;;;;;;10.73;6.32;;;0.30;99.90;;;;;;4908611;29;20127;-77
2021/01/14 10:59:05;;;;;;;9.93;6.50;;;0.30;99.90;;;;;;4958030;28;20135;-77
2021/01/14 11:01:34;;;;;;;13.27;6.93;;;0.20;99.90;;;;;;4949330;28;20043;-76
2021/01/14 11:04:07;;;;;;;11.07;6.72;;;0.20;99.90;;;;;;4962393;28;20221;-76
2021/01/14 11:06:37;;;;;;;12.00;6.82;;;0.20;99.90;;;;;;4962754;28;20047;-77
2021/01/14 11:09:06;;;;;;;13.35;6.80;;;0.30;99.90;;;;;;4970844;28;20037;-76
2021/01/14 11:11:37;;;;;;;11.90;6.65;;;0.40;99.90;;;;;;5047598;28;20558;-77
2021/01/14 11:14:06;;;;;;;16.45;6.93;;;0.40;99.90;;;;;;5080811;28;20044;-76
2021/01/14 11:16:42;;;;;;;13.15;6.82;;;0.50;99.90;;;;;;5075536;28;20071;-76
2021/01/14 11:19:15;;;;;;;14.00;6.40;;;0.60;99.90;;;;;;5086775;28;20486;-76
2021/01/14 11:21:46;;;;;;;10.50;6.55;;;0.70;99.90;;;;;;5079582;28;20470;-77
2021/01/14 11:24:15;;;;;;;14.88;6.60;;;0.80;99.90;;;;;;5085044;28;20842;-76
2021/01/14 11:26:50;;;;;;;9.70;5.63;;;1.00;99.90;;;;;;5086658;28;20479;-77
2021/01/14 11:29:24;;;;;;;9.38;5.70;;;1.00;99.90;;;;;;5086254;28;20042;-77
2021/01/14 11:31:56;;;;;;;9.45;6.10;;;1.00;99.90;;;;;;5084706;28;20048;-78
2021/01/14 11:34:27;;;;;;;15.77;5.82;;;0.90;99.90;;;;;;5069198;28;20802;-77
2021/01/14 11:36:56;;;;;;;27.88;6.30;;;0.80;99.90;;;;;;5055841;28;20049;-77
2021/01/14 11:39:30;;;;;;;9.93;6.32;;;0.60;99.90;;;;;;5080159;28;20052;-77
2021/01/14 11:41:59;;;;;;;11.05;6.75;;;0.60;99.90;;;;;;5060409;28;20126;-76
2021/01/14 11:44:30;;;;;;;12.65;6.50;;;0.50;99.90;;;;;;5086939;28;20859;-76
2021/01/14 11:46:59;;;;;;;11.80;6.32;;;0.50;99.90;;;;;;5083022;28;20136;-76
2021/01/14 11:49:30;;;;;;;9.75;6.05;;;0.50;99.90;;;;;;5086954;28;20056;-77
2021/01/14 11:52:11;;;;;;;15.43;7.20;;;0.40;99.90;;;;;;5087544;28;20437;-77
2021/01/14 11:54:39;;;;;;;11.70;6.90;;;0.40;99.90;;;;;;5081685;28;20105;-77
2021/01/14 11:57:10;;;;;;;12.75;6.38;;;0.30;99.90;;;;;;5079356;28;20321;-76
2021/01/14 11:59:38;;;;;;;13.55;9.15;;;0.30;99.90;;;;;;5051110;28;20052;-77
2021/01/14 12:02:08;;;;;;;8.32;5.95;;;0.30;99.90;;;;;;5077279;28;20131;-77
2021/01/14 12:04:37;;;;;;;15.82;6.53;;;0.30;99.90;;;;;;5066048;28;20140;-77
2021/01/14 12:07:09;;;;;;;12.32;6.95;;;0.20;99.90;;;;;;5077625;28;20147;-76
2021/01/14 12:09:39;;;;;;;10.48;6.30;;;0.20;99.90;;;;;;5086479;28;20044;-76
2021/01/14 12:12:10;;;;;;;10.32;5.68;;;0.20;99.90;;;;;;5076956;28;20064;-77
2021/01/14 12:14:40;;;;;;;14.18;7.72;;;0.10;99.90;;;;;;5079839;28;20120;-77
2021/01/14 12:17:08;;;;;;;8.05;5.85;;;0.10;99.90;;;;;;5087037;28;20473;-76
2021/01/14 12:19:36;;;;;;;9.50;6.35;;;0.10;99.90;;;;;;5055064;28;20488;-76
2021/01/14 12:22:13;;;;;;;10.38;6.88;;;0.10;99.90;;;;;;5069996;28;20097;-77
2021/01/14 12:24:48;;;;;;;10.98;7.00;;;0.10;99.90;;;;;;5082383;28;20479;-76
2021/01/14 12:27:19;;;;;;;10.32;6.65;;;0.10;99.90;;;;;;5065997;28;20648;-76
2021/01/14 12:29:50;;;;;;;19.50;7.85;;;0.10;99.90;;;;;;5078959;28;20059;-76
2021/01/14 12:32:17;;;;;;;15.27;6.85;;;0.30;99.90;;;;;;5074436;28;20048;-77
2021/01/14 12:34:51;;;;;;;12.25;7.03;;;0.30;99.90;;;;;;5082381;28;20109;-76
2021/01/14 12:37:38;;;;;;;11.82;6.80;;;0.40;99.90;;;;;;5060247;28;20124;-77
2021/01/14 12:40:09;;;;;;;11.07;6.95;;;0.40;99.90;;;;;;5078495;28;20078;-78
2021/01/14 12:42:46;;;;;;;11.70;5.70;;;0.30;99.90;;;;;;5066476;28;20140;-77
2021/01/14 12:45:19;;;;;;;18.50;6.35;;;0.20;99.90;;;;;;5057344;28;20435;-77
2021/01/14 12:47:51;;;;;;;10.27;5.03;;;0.20;99.90;;;;;;5050764;28;20052;-76
2021/01/14 12:50:23;;;;;;;8.05;4.82;;;0.30;99.90;;;;;;5068074;28;20082;-76
2021/01/14 12:53:01;;;;;;;9.05;6.10;;;0.30;99.90;;;;;;5086549;28;20060;-76
2021/01/14 12:55:31;;;;;;;11.23;6.68;;;0.40;99.90;;;;;;5079324;28;20076;-77
2021/01/14 12:58:05;;;;;;;9.18;5.70;;;0.30;99.90;;;;;;5048165;28;20074;-77
2021/01/14 13:00:35;;;;;;;9.25;5.85;;;0.30;99.90;;;;;;5060516;28;20287;-77
2021/01/14 13:03:07;;;;;;;14.77;8.70;;;0.20;99.90;;;;;;5068642;28;20044;-77
2021/01/14 13:06:05;;;;;;;10.98;5.10;;;0.30;99.90;;;;;;5074544;28;20048;-77
2021/01/14 13:08:40;;;;;;;9.45;6.32;;;0.10;99.90;;;;;;5040368;28;20055;-77
2021/01/14 13:11:14;;;;;;;14.75;6.57;;;0.10;99.90;;;;;;5062748;28;20056;-77
2021/01/14 13:13:41;;;;;;;9.00;6.05;;;0.10;99.90;;;;;;5052860;28;20044;-77
2021/01/14 13:16:10;;;;;;;14.35;7.85;;;0.00;99.90;;;;;;5053367;28;20055;-78
2021/01/14 13:18:47;;;;;;;11.32;6.38;;;-0.10;99.90;;;;;;5047147;28;20052;-77
2021/01/14 13:21:16;;;;;;;12.25;7.28;;;-0.10;99.90;;;;;;5058634;28;20048;-77
2021/01/14 13:23:46;;;;;;;9.50;6.72;;;-0.10;99.90;;;;;;5051167;28;20040;-77
2021/01/14 13:26:16;;;;;;;10.57;6.35;;;-0.10;99.90;;;;;;5051286;28;20687;-77
2021/01/14 13:28:52;;;;;;;13.02;7.07;;;-0.20;99.90;;;;;;5047138;28;20075;-77
2021/01/14 13:31:38;;;;;;;13.53;6.33;;;-0.30;99.90;;;;;;5059372;28;20052;-77
2021/01/14 13:34:04;;;;;;;8.05;5.88;;;-0.30;99.90;;;;;;5056356;28;20322;-75
2021/01/14 13:36:32;;;;;;;8.43;5.70;;;-0.30;99.90;;;;;;5053641;28;20036;-78
2021/01/14 13:39:29;;;;;;;8.70;5.70;;;-0.30;99.90;;;;;;5051274;28;20138;-77
2021/01/14 13:42:06;;;;;;;8.95;5.90;;;-0.30;99.90;;;;;;5063890;28;20033;-77
2021/01/14 13:44:34;;;;;;;11.02;5.53;;;-0.40;99.90;;;;;;5055132;28;20524;-78
2021/01/14 13:47:03;;;;;;;6.50;4.82;;;-0.40;99.90;;;;;;5059498;28;20410;-76
2021/01/14 13:49:34;;;;;;;6.10;4.50;;;-0.50;99.90;;;;;;5056060;28;20108;-77
2021/01/14 13:52:08;;;;;;;6.78;5.38;;;-0.50;99.90;;;;;;5053503;28;20052;-76
2021/01/14 13:54:42;;;;;;;7.78;5.07;;;-0.50;99.90;;;;;;5077167;28;20110;-78
2021/01/14 13:57:12;;;;;;;9.60;5.40;;;-0.50;99.90;;;;;;5059535;28;20056;-77
2021/01/14 13:59:49;;;;;;;6.72;4.78;;;-0.50;99.90;;;;;;5079828;28;20045;-76
2021/01/14 14:02:20;;;;;;;6.03;4.90;;;-0.50;99.90;;;;;;5060261;28;20570;-76